sensor_id;sensor_type;location;lat;lon;timestamp;P1;durP1;ratioP1;P2;durP2;ratioP2
10248;SDS011;5169;50.560;9.714;2023-04-15T00:01:50;43.83;;;29.13;;
10248;SDS011;5169;50.560;9.714;2023-04-15T00:04:16;48.20;;;30.50;;
10248;SDS011;5169;50.560;9.714;2023-04-15T00:06:42;43.27;;;29.50;;
10248;SDS011;5169;50.560;9.714;2023-04-15T00:09:16;44.07;;;28.93;;
10248;SDS011;5169;50.560;9.714;2023-04-15T00:11:41;42.30;;;28.83;;
10248;SDS011;5169;50.560;9.714;2023-04-15T00:14:09;40.73;;;27.53;;
10248;SDS011;5169;50.560;9.714;2023-04-15T00:16:37;40.90;;;28.70;;
10248;SDS011;5169;50.560;9.714;2023-04-15T00:19:05;38.07;;;28.03;;
10248;SDS011;5169;50.560;9.714;2023-04-15T00:21:31;34.53;;;26.40;;
10248;SDS011;5169;50.560;9.714;2023-04-15T00:23:56;30.60;;;24.53;;
10248;SDS011;5169;50.560;9.714;2023-04-15T00:26:22;34.57;;;26.40;;
10248;SDS011;5169;50.560;9.714;2023-04-15T00:28:47;34.50;;;26.07;;
10248;SDS011;5169;50.560;9.714;2023-04-15T00:31:13;32.27;;;25.33;;
10248;SDS011;5169;50.560;9.714;2023-04-15T00:33:42;36.23;;;26.97;;
10248;SDS011;5169;50.560;9.714;2023-04-15T00:36:09;34.07;;;25.97;;
10248;SDS011;5169;50.560;9.714;2023-04-15T00:38:36;35.60;;;26.27;;
10248;SDS011;5169;50.560;9.714;2023-04-15T00:41:02;31.40;;;25.10;;
10248;SDS011;5169;50.560;9.714;2023-04-15T00:43:28;35.37;;;26.63;;
10248;SDS011;5169;50.560;9.714;2023-04-15T00:45:56;37.13;;;26.47;;
10248;SDS011;5169;50.560;9.714;2023-04-15T00:48:23;40.57;;;27.13;;
10248;SDS011;5169;50.560;9.714;2023-04-15T00:50:50;38.97;;;26.77;;
10248;SDS011;5169;50.560;9.714;2023-04-15T00:53:15;33.53;;;25.43;;
10248;SDS011;5169;50.560;9.714;2023-04-15T00:55:41;34.17;;;25.67;;
10248;SDS011;5169;50.560;9.714;2023-04-15T00:58:09;35.07;;;25.73;;
10248;SDS011;5169;50.560;9.714;2023-04-15T01:00:39;34.90;;;25.03;;
10248;SDS011;5169;50.560;9.714;2023-04-15T01:03:05;38.93;;;27.30;;
10248;SDS011;5169;50.560;9.714;2023-04-15T01:05:31;30.50;;;24.77;;
10248;SDS011;5169;50.560;9.714;2023-04-15T01:08:00;29.80;;;23.83;;
10248;SDS011;5169;50.560;9.714;2023-04-15T01:10:29;31.47;;;25.03;;
10248;SDS011;5169;50.560;9.714;2023-04-15T01:12:55;28.33;;;23.97;;
10248;SDS011;5169;50.560;9.714;2023-04-15T01:15:21;36.93;;;26.33;;
10248;SDS011;5169;50.560;9.714;2023-04-15T01:17:47;40.00;;;27.93;;
10248;SDS011;5169;50.560;9.714;2023-04-15T01:20:13;43.80;;;28.73;;
10248;SDS011;5169;50.560;9.714;2023-04-15T01:22:41;44.90;;;28.50;;
10248;SDS011;5169;50.560;9.714;2023-04-15T01:25:17;42.70;;;28.10;;
10248;SDS011;5169;50.560;9.714;2023-04-15T01:27:46;45.33;;;28.80;;
10248;SDS011;5169;50.560;9.714;2023-04-15T01:30:15;42.77;;;28.20;;
10248;SDS011;5169;50.560;9.714;2023-04-15T01:32:42;35.60;;;25.60;;
10248;SDS011;5169;50.560;9.714;2023-04-15T01:35:10;35.27;;;25.43;;
10248;SDS011;5169;50.560;9.714;2023-04-15T01:37:36;37.57;;;26.43;;
10248;SDS011;5169;50.560;9.714;2023-04-15T01:40:02;36.27;;;25.37;;
10248;SDS011;5169;50.560;9.714;2023-04-15T01:42:27;35.87;;;25.57;;
10248;SDS011;5169;50.560;9.714;2023-04-15T01:44:53;37.73;;;25.30;;
10248;SDS011;5169;50.560;9.714;2023-04-15T01:47:19;36.00;;;25.53;;
10248;SDS011;5169;50.560;9.714;2023-04-15T01:49:44;36.67;;;25.90;;
10248;SDS011;5169;50.560;9.714;2023-04-15T01:52:10;39.83;;;26.20;;
10248;SDS011;5169;50.560;9.714;2023-04-15T01:54:38;38.17;;;25.73;;
10248;SDS011;5169;50.560;9.714;2023-04-15T01:57:03;43.77;;;27.60;;
10248;SDS011;5169;50.560;9.714;2023-04-15T01:59:29;41.27;;;27.13;;
10248;SDS011;5169;50.560;9.714;2023-04-15T02:01:55;37.33;;;26.10;;
10248;SDS011;5169;50.560;9.714;2023-04-15T02:04:21;43.87;;;28.77;;
10248;SDS011;5169;50.560;9.714;2023-04-15T02:06:49;46.27;;;29.27;;
10248;SDS011;5169;50.560;9.714;2023-04-15T02:09:15;43.93;;;28.43;;
10248;SDS011;5169;50.560;9.714;2023-04-15T02:11:43;44.87;;;28.77;;
10248;SDS011;5169;50.560;9.714;2023-04-15T02:14:08;39.67;;;26.73;;
10248;SDS011;5169;50.560;9.714;2023-04-15T02:16:36;42.40;;;27.73;;
10248;SDS011;5169;50.560;9.714;2023-04-15T02:19:02;48.00;;;29.50;;
10248;SDS011;5169;50.560;9.714;2023-04-15T02:21:28;50.13;;;29.03;;
10248;SDS011;5169;50.560;9.714;2023-04-15T02:23:56;44.93;;;27.40;;
10248;SDS011;5169;50.560;9.714;2023-04-15T02:26:22;43.10;;;26.93;;
10248;SDS011;5169;50.560;9.714;2023-04-15T02:28:49;41.13;;;26.80;;
10248;SDS011;5169;50.560;9.714;2023-04-15T02:31:15;39.40;;;26.33;;
10248;SDS011;5169;50.560;9.714;2023-04-15T02:33:43;40.77;;;27.40;;
10248;SDS011;5169;50.560;9.714;2023-04-15T02:36:09;44.67;;;29.00;;
10248;SDS011;5169;50.560;9.714;2023-04-15T02:38:36;40.90;;;27.57;;
10248;SDS011;5169;50.560;9.714;2023-04-15T02:41:06;39.87;;;27.33;;
10248;SDS011;5169;50.560;9.714;2023-04-15T02:43:32;39.13;;;26.50;;
10248;SDS011;5169;50.560;9.714;2023-04-15T02:46:00;39.23;;;27.10;;
10248;SDS011;5169;50.560;9.714;2023-04-15T02:48:26;39.60;;;27.03;;
10248;SDS011;5169;50.560;9.714;2023-04-15T02:50:51;40.47;;;27.40;;
10248;SDS011;5169;50.560;9.714;2023-04-15T02:53:17;39.53;;;25.87;;
10248;SDS011;5169;50.560;9.714;2023-04-15T02:55:43;36.33;;;25.73;;
10248;SDS011;5169;50.560;9.714;2023-04-15T02:58:09;38.60;;;26.63;;
10248;SDS011;5169;50.560;9.714;2023-04-15T03:00:35;39.97;;;26.87;;
10248;SDS011;5169;50.560;9.714;2023-04-15T03:03:04;43.97;;;28.13;;
10248;SDS011;5169;50.560;9.714;2023-04-15T03:05:30;39.70;;;26.73;;
10248;SDS011;5169;50.560;9.714;2023-04-15T03:07:58;36.30;;;25.87;;
10248;SDS011;5169;50.560;9.714;2023-04-15T03:10:27;32.37;;;24.40;;
10248;SDS011;5169;50.560;9.714;2023-04-15T03:12:52;39.67;;;26.50;;
10248;SDS011;5169;50.560;9.714;2023-04-15T03:15:18;42.33;;;27.03;;
10248;SDS011;5169;50.560;9.714;2023-04-15T03:17:43;38.87;;;26.90;;
10248;SDS011;5169;50.560;9.714;2023-04-15T03:20:09;40.00;;;26.70;;
10248;SDS011;5169;50.560;9.714;2023-04-15T03:22:35;37.80;;;25.83;;
10248;SDS011;5169;50.560;9.714;2023-04-15T03:25:00;41.13;;;26.20;;
10248;SDS011;5169;50.560;9.714;2023-04-15T03:27:26;43.27;;;27.43;;
10248;SDS011;5169;50.560;9.714;2023-04-15T03:29:54;42.60;;;26.90;;
10248;SDS011;5169;50.560;9.714;2023-04-15T03:32:24;32.20;;;24.17;;
10248;SDS011;5169;50.560;9.714;2023-04-15T03:34:52;33.67;;;24.17;;
10248;SDS011;5169;50.560;9.714;2023-04-15T03:37:17;38.33;;;25.57;;
10248;SDS011;5169;50.560;9.714;2023-04-15T03:39:43;41.50;;;27.10;;
10248;SDS011;5169;50.560;9.714;2023-04-15T03:42:11;43.20;;;27.20;;
10248;SDS011;5169;50.560;9.714;2023-04-15T03:44:38;41.03;;;26.47;;
10248;SDS011;5169;50.560;9.714;2023-04-15T03:47:07;44.37;;;27.43;;
10248;SDS011;5169;50.560;9.714;2023-04-15T03:49:32;36.30;;;25.87;;
10248;SDS011;5169;50.560;9.714;2023-04-15T03:51:58;42.47;;;27.00;;
10248;SDS011;5169;50.560;9.714;2023-04-15T03:54:23;38.10;;;25.97;;
10248;SDS011;5169;50.560;9.714;2023-04-15T03:56:49;41.50;;;26.67;;
10248;SDS011;5169;50.560;9.714;2023-04-15T03:59:15;37.77;;;26.03;;
10248;SDS011;5169;50.560;9.714;2023-04-15T04:01:40;43.47;;;28.10;;
10248;SDS011;5169;50.560;9.714;2023-04-15T04:04:06;48.63;;;29.57;;
10248;SDS011;5169;50.560;9.714;2023-04-15T04:06:32;41.37;;;26.93;;
10248;SDS011;5169;50.560;9.714;2023-04-15T04:08:57;45.30;;;28.00;;
10248;SDS011;5169;50.560;9.714;2023-04-15T04:11:26;44.80;;;27.27;;
10248;SDS011;5169;50.560;9.714;2023-04-15T04:13:52;42.27;;;26.53;;
10248;SDS011;5169;50.560;9.714;2023-04-15T04:16:18;35.67;;;24.93;;
10248;SDS011;5169;50.560;9.714;2023-04-15T04:18:43;34.90;;;24.83;;
10248;SDS011;5169;50.560;9.714;2023-04-15T04:21:09;39.10;;;26.17;;
10248;SDS011;5169;50.560;9.714;2023-04-15T04:23:35;37.57;;;25.33;;
10248;SDS011;5169;50.560;9.714;2023-04-15T04:26:01;42.47;;;27.17;;
10248;SDS011;5169;50.560;9.714;2023-04-15T04:28:26;49.40;;;29.47;;
10248;SDS011;5169;50.560;9.714;2023-04-15T04:30:54;75.73;;;43.53;;
10248;SDS011;5169;50.560;9.714;2023-04-15T04:33:20;53.60;;;32.17;;
10248;SDS011;5169;50.560;9.714;2023-04-15T04:35:46;44.27;;;28.10;;
10248;SDS011;5169;50.560;9.714;2023-04-15T04:38:11;40.80;;;27.23;;
10248;SDS011;5169;50.560;9.714;2023-04-15T04:40:37;37.87;;;25.07;;
10248;SDS011;5169;50.560;9.714;2023-04-15T04:43:03;48.47;;;28.87;;
10248;SDS011;5169;50.560;9.714;2023-04-15T04:45:29;46.80;;;28.17;;
10248;SDS011;5169;50.560;9.714;2023-04-15T04:47:54;49.93;;;28.90;;
10248;SDS011;5169;50.560;9.714;2023-04-15T04:50:20;51.63;;;28.73;;
10248;SDS011;5169;50.560;9.714;2023-04-15T04:52:48;48.30;;;28.50;;
10248;SDS011;5169;50.560;9.714;2023-04-15T04:55:13;50.07;;;28.70;;
10248;SDS011;5169;50.560;9.714;2023-04-15T04:57:39;46.20;;;28.43;;
10248;SDS011;5169;50.560;9.714;2023-04-15T05:00:05;47.80;;;28.63;;
10248;SDS011;5169;50.560;9.714;2023-04-15T05:02:32;44.40;;;27.47;;
10248;SDS011;5169;50.560;9.714;2023-04-15T05:05:01;42.40;;;27.13;;
10248;SDS011;5169;50.560;9.714;2023-04-15T05:07:29;37.90;;;26.37;;
10248;SDS011;5169;50.560;9.714;2023-04-15T05:09:57;42.07;;;27.07;;
10248;SDS011;5169;50.560;9.714;2023-04-15T05:12:23;38.07;;;25.23;;
10248;SDS011;5169;50.560;9.714;2023-04-15T05:14:48;46.80;;;28.63;;
10248;SDS011;5169;50.560;9.714;2023-04-15T05:17:14;46.87;;;28.53;;
10248;SDS011;5169;50.560;9.714;2023-04-15T05:19:39;45.80;;;28.47;;
10248;SDS011;5169;50.560;9.714;2023-04-15T05:22:12;45.07;;;28.23;;
10248;SDS011;5169;50.560;9.714;2023-04-15T05:24:38;46.40;;;28.60;;
10248;SDS011;5169;50.560;9.714;2023-04-15T05:27:06;43.80;;;27.47;;
10248;SDS011;5169;50.560;9.714;2023-04-15T05:29:32;50.90;;;28.83;;
10248;SDS011;5169;50.560;9.714;2023-04-15T05:32:00;47.07;;;28.50;;
10248;SDS011;5169;50.560;9.714;2023-04-15T05:34:26;41.27;;;26.77;;
10248;SDS011;5169;50.560;9.714;2023-04-15T05:36:51;49.97;;;29.30;;
10248;SDS011;5169;50.560;9.714;2023-04-15T05:39:19;50.03;;;29.83;;
10248;SDS011;5169;50.560;9.714;2023-04-15T05:41:47;46.97;;;28.67;;
10248;SDS011;5169;50.560;9.714;2023-04-15T05:44:12;46.13;;;28.77;;
10248;SDS011;5169;50.560;9.714;2023-04-15T05:46:38;46.80;;;28.40;;
10248;SDS011;5169;50.560;9.714;2023-04-15T05:49:06;56.87;;;31.73;;
10248;SDS011;5169;50.560;9.714;2023-04-15T05:51:34;47.20;;;29.23;;
10248;SDS011;5169;50.560;9.714;2023-04-15T05:54:00;47.47;;;29.63;;
10248;SDS011;5169;50.560;9.714;2023-04-15T05:56:28;51.83;;;30.37;;
10248;SDS011;5169;50.560;9.714;2023-04-15T05:58:53;39.90;;;27.40;;
10248;SDS011;5169;50.560;9.714;2023-04-15T06:01:19;41.70;;;27.47;;
10248;SDS011;5169;50.560;9.714;2023-04-15T06:03:45;45.03;;;29.67;;
10248;SDS011;5169;50.560;9.714;2023-04-15T06:06:13;46.10;;;29.43;;
10248;SDS011;5169;50.560;9.714;2023-04-15T06:08:41;37.27;;;26.73;;
10248;SDS011;5169;50.560;9.714;2023-04-15T06:11:12;38.93;;;26.80;;
10248;SDS011;5169;50.560;9.714;2023-04-15T06:13:38;40.90;;;27.47;;
10248;SDS011;5169;50.560;9.714;2023-04-15T06:16:04;42.93;;;28.53;;
10248;SDS011;5169;50.560;9.714;2023-04-15T06:18:29;40.63;;;27.17;;
10248;SDS011;5169;50.560;9.714;2023-04-15T06:20:55;40.83;;;27.67;;
10248;SDS011;5169;50.560;9.714;2023-04-15T06:23:21;41.13;;;27.90;;
10248;SDS011;5169;50.560;9.714;2023-04-15T06:25:47;41.50;;;28.93;;
10248;SDS011;5169;50.560;9.714;2023-04-15T06:28:12;40.83;;;28.00;;
10248;SDS011;5169;50.560;9.714;2023-04-15T06:30:38;40.97;;;28.57;;
10248;SDS011;5169;50.560;9.714;2023-04-15T06:33:04;43.70;;;29.13;;
10248;SDS011;5169;50.560;9.714;2023-04-15T06:35:30;42.53;;;28.80;;
10248;SDS011;5169;50.560;9.714;2023-04-15T06:37:56;44.07;;;30.27;;
10248;SDS011;5169;50.560;9.714;2023-04-15T06:40:23;41.67;;;29.93;;
10248;SDS011;5169;50.560;9.714;2023-04-15T06:42:52;43.70;;;29.30;;
10248;SDS011;5169;50.560;9.714;2023-04-15T06:45:19;43.47;;;29.70;;
10248;SDS011;5169;50.560;9.714;2023-04-15T06:47:45;34.43;;;26.87;;
10248;SDS011;5169;50.560;9.714;2023-04-15T06:50:11;42.97;;;30.47;;
10248;SDS011;5169;50.560;9.714;2023-04-15T06:52:36;48.37;;;31.43;;
10248;SDS011;5169;50.560;9.714;2023-04-15T06:55:05;40.80;;;29.90;;
10248;SDS011;5169;50.560;9.714;2023-04-15T06:57:31;44.20;;;31.40;;
10248;SDS011;5169;50.560;9.714;2023-04-15T07:00:01;42.37;;;30.47;;
10248;SDS011;5169;50.560;9.714;2023-04-15T07:02:27;44.33;;;30.90;;
10248;SDS011;5169;50.560;9.714;2023-04-15T07:04:53;44.70;;;31.30;;
10248;SDS011;5169;50.560;9.714;2023-04-15T07:07:21;43.73;;;30.20;;
10248;SDS011;5169;50.560;9.714;2023-04-15T07:09:46;50.00;;;32.50;;
10248;SDS011;5169;50.560;9.714;2023-04-15T07:12:12;38.10;;;29.40;;
10248;SDS011;5169;50.560;9.714;2023-04-15T07:14:38;49.67;;;33.13;;
10248;SDS011;5169;50.560;9.714;2023-04-15T07:17:03;42.93;;;30.47;;
10248;SDS011;5169;50.560;9.714;2023-04-15T07:19:29;37.07;;;28.13;;
10248;SDS011;5169;50.560;9.714;2023-04-15T07:21:55;40.80;;;29.60;;
10248;SDS011;5169;50.560;9.714;2023-04-15T07:24:20;37.17;;;28.80;;
10248;SDS011;5169;50.560;9.714;2023-04-15T07:26:47;34.67;;;28.47;;
10248;SDS011;5169;50.560;9.714;2023-04-15T07:29:15;37.83;;;29.83;;
10248;SDS011;5169;50.560;9.714;2023-04-15T07:31:41;33.10;;;27.87;;
10248;SDS011;5169;50.560;9.714;2023-04-15T07:34:06;34.40;;;28.30;;
10248;SDS011;5169;50.560;9.714;2023-04-15T07:36:32;37.53;;;29.73;;
10248;SDS011;5169;50.560;9.714;2023-04-15T07:38:58;37.87;;;29.97;;
10248;SDS011;5169;50.560;9.714;2023-04-15T07:41:27;38.17;;;29.53;;
10248;SDS011;5169;50.560;9.714;2023-04-15T07:43:53;32.50;;;27.60;;
10248;SDS011;5169;50.560;9.714;2023-04-15T07:46:21;40.23;;;29.83;;
10248;SDS011;5169;50.560;9.714;2023-04-15T07:48:48;43.13;;;30.87;;
10248;SDS011;5169;50.560;9.714;2023-04-15T07:51:16;43.23;;;31.43;;
10248;SDS011;5169;50.560;9.714;2023-04-15T07:53:43;40.13;;;30.93;;
10248;SDS011;5169;50.560;9.714;2023-04-15T07:56:09;43.03;;;31.60;;
10248;SDS011;5169;50.560;9.714;2023-04-15T07:58:35;43.57;;;32.07;;
10248;SDS011;5169;50.560;9.714;2023-04-15T08:01:03;43.00;;;31.30;;
10248;SDS011;5169;50.560;9.714;2023-04-15T08:03:29;43.63;;;31.20;;
10248;SDS011;5169;50.560;9.714;2023-04-15T08:05:57;42.77;;;30.83;;
10248;SDS011;5169;50.560;9.714;2023-04-15T08:08:23;44.63;;;32.03;;
10248;SDS011;5169;50.560;9.714;2023-04-15T08:10:52;39.83;;;30.07;;
10248;SDS011;5169;50.560;9.714;2023-04-15T08:13:17;44.27;;;32.10;;
10248;SDS011;5169;50.560;9.714;2023-04-15T08:15:43;41.67;;;30.40;;
10248;SDS011;5169;50.560;9.714;2023-04-15T08:18:11;38.53;;;30.10;;
10248;SDS011;5169;50.560;9.714;2023-04-15T08:20:36;39.43;;;29.73;;
10248;SDS011;5169;50.560;9.714;2023-04-15T08:23:02;42.77;;;30.27;;
10248;SDS011;5169;50.560;9.714;2023-04-15T08:25:31;39.93;;;29.10;;
10248;SDS011;5169;50.560;9.714;2023-04-15T08:27:57;42.30;;;30.77;;
10248;SDS011;5169;50.560;9.714;2023-04-15T08:30:27;44.87;;;31.20;;
10248;SDS011;5169;50.560;9.714;2023-04-15T08:32:55;30.10;;;26.37;;
10248;SDS011;5169;50.560;9.714;2023-04-15T08:35:21;38.90;;;28.90;;
10248;SDS011;5169;50.560;9.714;2023-04-15T08:37:46;40.73;;;29.83;;
10248;SDS011;5169;50.560;9.714;2023-04-15T08:40:12;36.60;;;28.83;;
10248;SDS011;5169;50.560;9.714;2023-04-15T08:42:40;42.10;;;30.43;;
10248;SDS011;5169;50.560;9.714;2023-04-15T08:45:10;35.30;;;28.13;;
10248;SDS011;5169;50.560;9.714;2023-04-15T08:47:36;38.63;;;29.57;;
10248;SDS011;5169;50.560;9.714;2023-04-15T08:50:07;28.40;;;25.30;;
10248;SDS011;5169;50.560;9.714;2023-04-15T08:52:34;37.63;;;29.83;;
10248;SDS011;5169;50.560;9.714;2023-04-15T08:55:02;31.20;;;27.53;;
10248;SDS011;5169;50.560;9.714;2023-04-15T08:57:29;35.23;;;28.57;;
10248;SDS011;5169;50.560;9.714;2023-04-15T08:59:56;35.60;;;29.77;;
10248;SDS011;5169;50.560;9.714;2023-04-15T09:02:22;43.30;;;31.53;;
10248;SDS011;5169;50.560;9.714;2023-04-15T09:04:51;45.23;;;31.90;;
10248;SDS011;5169;50.560;9.714;2023-04-15T09:07:17;41.93;;;30.83;;
10248;SDS011;5169;50.560;9.714;2023-04-15T09:09:42;42.93;;;31.10;;
10248;SDS011;5169;50.560;9.714;2023-04-15T09:12:08;41.13;;;30.80;;
10248;SDS011;5169;50.560;9.714;2023-04-15T09:14:39;40.03;;;29.80;;
10248;SDS011;5169;50.560;9.714;2023-04-15T09:17:08;45.07;;;31.83;;
10248;SDS011;5169;50.560;9.714;2023-04-15T09:19:37;45.20;;;31.97;;
10248;SDS011;5169;50.560;9.714;2023-04-15T09:22:03;43.40;;;30.37;;
10248;SDS011;5169;50.560;9.714;2023-04-15T09:24:35;42.80;;;30.93;;
10248;SDS011;5169;50.560;9.714;2023-04-15T09:27:05;42.03;;;30.63;;
10248;SDS011;5169;50.560;9.714;2023-04-15T09:29:31;37.10;;;29.00;;
10248;SDS011;5169;50.560;9.714;2023-04-15T09:32:07;41.40;;;30.30;;
10248;SDS011;5169;50.560;9.714;2023-04-15T09:34:37;41.93;;;30.90;;
10248;SDS011;5169;50.560;9.714;2023-04-15T09:37:03;40.10;;;29.93;;
10248;SDS011;5169;50.560;9.714;2023-04-15T09:39:43;39.20;;;29.80;;
10248;SDS011;5169;50.560;9.714;2023-04-15T09:42:11;38.27;;;29.10;;
10248;SDS011;5169;50.560;9.714;2023-04-15T09:44:36;33.60;;;28.40;;
10248;SDS011;5169;50.560;9.714;2023-04-15T09:47:02;38.63;;;29.80;;
10248;SDS011;5169;50.560;9.714;2023-04-15T09:49:28;39.10;;;29.90;;
10248;SDS011;5169;50.560;9.714;2023-04-15T09:51:57;39.30;;;30.10;;
10248;SDS011;5169;50.560;9.714;2023-04-15T09:54:32;40.97;;;29.80;;
10248;SDS011;5169;50.560;9.714;2023-04-15T09:57:05;32.50;;;27.03;;
10248;SDS011;5169;50.560;9.714;2023-04-15T09:59:33;41.33;;;30.43;;
10248;SDS011;5169;50.560;9.714;2023-04-15T10:01:59;40.87;;;30.03;;
10248;SDS011;5169;50.560;9.714;2023-04-15T10:04:31;43.30;;;30.47;;
10248;SDS011;5169;50.560;9.714;2023-04-15T10:07:02;41.83;;;30.00;;
10248;SDS011;5169;50.560;9.714;2023-04-15T10:09:30;41.53;;;30.23;;
10248;SDS011;5169;50.560;9.714;2023-04-15T10:11:59;37.33;;;29.03;;
10248;SDS011;5169;50.560;9.714;2023-04-15T10:14:30;39.27;;;29.97;;
10248;SDS011;5169;50.560;9.714;2023-04-15T10:16:58;41.90;;;30.57;;
10248;SDS011;5169;50.560;9.714;2023-04-15T10:19:26;39.47;;;30.00;;
10248;SDS011;5169;50.560;9.714;2023-04-15T10:21:55;43.27;;;30.70;;
10248;SDS011;5169;50.560;9.714;2023-04-15T10:24:21;36.90;;;28.70;;
10248;SDS011;5169;50.560;9.714;2023-04-15T10:26:50;33.37;;;27.80;;
10248;SDS011;5169;50.560;9.714;2023-04-15T10:29:21;45.40;;;31.27;;
10248;SDS011;5169;50.560;9.714;2023-04-15T10:31:50;43.13;;;30.13;;
10248;SDS011;5169;50.560;9.714;2023-04-15T10:34:16;39.90;;;28.97;;
10248;SDS011;5169;50.560;9.714;2023-04-15T10:36:42;38.20;;;27.90;;
10248;SDS011;5169;50.560;9.714;2023-04-15T10:42:08;33.47;;;26.37;;
10248;SDS011;5169;50.560;9.714;2023-04-15T10:44:36;39.03;;;27.70;;
10248;SDS011;5169;50.560;9.714;2023-04-15T10:47:12;38.30;;;27.93;;
10248;SDS011;5169;50.560;9.714;2023-04-15T10:49:46;36.63;;;27.10;;
10248;SDS011;5169;50.560;9.714;2023-04-15T10:52:16;32.37;;;26.27;;
10248;SDS011;5169;50.560;9.714;2023-04-15T10:54:42;26.10;;;23.33;;
10248;SDS011;5169;50.560;9.714;2023-04-15T10:57:54;26.23;;;23.47;;
10248;SDS011;5169;50.560;9.714;2023-04-15T11:02:57;28.13;;;25.00;;
10248;SDS011;5169;50.560;9.714;2023-04-15T11:08:06;26.50;;;23.60;;
10248;SDS011;5169;50.560;9.714;2023-04-15T11:20:51;34.80;;;27.40;;
10248;SDS011;5169;50.560;9.714;2023-04-15T11:23:28;34.77;;;27.93;;
10248;SDS011;5169;50.560;9.714;2023-04-15T11:26:05;38.00;;;28.70;;
10248;SDS011;5169;50.560;9.714;2023-04-15T11:28:33;33.53;;;26.90;;
10248;SDS011;5169;50.560;9.714;2023-04-15T11:31:06;31.43;;;26.23;;
10248;SDS011;5169;50.560;9.714;2023-04-15T11:33:32;33.17;;;27.47;;
10248;SDS011;5169;50.560;9.714;2023-04-15T11:35:58;36.63;;;28.17;;
10248;SDS011;5169;50.560;9.714;2023-04-15T11:38:29;34.17;;;27.07;;
10248;SDS011;5169;50.560;9.714;2023-04-15T11:40:58;36.63;;;27.60;;
10248;SDS011;5169;50.560;9.714;2023-04-15T11:43:26;37.83;;;28.90;;
10248;SDS011;5169;50.560;9.714;2023-04-15T11:45:58;34.70;;;26.97;;
10248;SDS011;5169;50.560;9.714;2023-04-15T11:50:54;33.93;;;27.03;;
10248;SDS011;5169;50.560;9.714;2023-04-15T11:53:19;40.00;;;28.73;;
10248;SDS011;5169;50.560;9.714;2023-04-15T11:55:47;35.60;;;27.50;;
10248;SDS011;5169;50.560;9.714;2023-04-15T11:58:15;35.97;;;26.53;;
10248;SDS011;5169;50.560;9.714;2023-04-15T12:00:44;38.87;;;28.17;;
10248;SDS011;5169;50.560;9.714;2023-04-15T12:06:01;35.57;;;26.90;;
10248;SDS011;5169;50.560;9.714;2023-04-15T12:11:41;31.23;;;24.83;;
10248;SDS011;5169;50.560;9.714;2023-04-15T12:14:25;26.80;;;23.90;;
10248;SDS011;5169;50.560;9.714;2023-04-15T12:17:13;32.93;;;25.57;;
10248;SDS011;5169;50.560;9.714;2023-04-15T12:19:38;31.93;;;25.73;;
10248;SDS011;5169;50.560;9.714;2023-04-15T12:22:15;32.70;;;26.23;;
10248;SDS011;5169;50.560;9.714;2023-04-15T12:24:42;30.97;;;25.67;;
10248;SDS011;5169;50.560;9.714;2023-04-15T12:27:12;32.03;;;25.97;;
10248;SDS011;5169;50.560;9.714;2023-04-15T12:29:39;29.97;;;24.93;;
10248;SDS011;5169;50.560;9.714;2023-04-15T12:37:04;22.77;;;20.60;;
10248;SDS011;5169;50.560;9.714;2023-04-15T12:39:40;22.33;;;20.30;;
10248;SDS011;5169;50.560;9.714;2023-04-15T12:42:07;23.53;;;21.27;;
10248;SDS011;5169;50.560;9.714;2023-04-15T12:44:34;25.10;;;22.47;;
10248;SDS011;5169;50.560;9.714;2023-04-15T12:47:00;21.20;;;19.23;;
10248;SDS011;5169;50.560;9.714;2023-04-15T12:49:26;29.17;;;25.37;;
10248;SDS011;5169;50.560;9.714;2023-04-15T12:51:54;25.47;;;22.87;;
10248;SDS011;5169;50.560;9.714;2023-04-15T12:54:20;28.30;;;25.30;;
10248;SDS011;5169;50.560;9.714;2023-04-15T12:56:50;21.83;;;19.80;;
10248;SDS011;5169;50.560;9.714;2023-04-15T12:59:16;29.07;;;25.83;;
10248;SDS011;5169;50.560;9.714;2023-04-15T13:01:47;17.20;;;15.80;;
10248;SDS011;5169;50.560;9.714;2023-04-15T13:04:14;24.63;;;22.20;;
10248;SDS011;5169;50.560;9.714;2023-04-15T13:06:40;27.47;;;24.53;;
10248;SDS011;5169;50.560;9.714;2023-04-15T13:09:08;29.30;;;25.03;;
10248;SDS011;5169;50.560;9.714;2023-04-15T13:11:39;37.00;;;27.57;;
10248;SDS011;5169;50.560;9.714;2023-04-15T13:14:07;27.40;;;23.70;;
10248;SDS011;5169;50.560;9.714;2023-04-15T13:16:36;35.40;;;26.83;;
10248;SDS011;5169;50.560;9.714;2023-04-15T13:19:05;35.17;;;25.97;;
10248;SDS011;5169;50.560;9.714;2023-04-15T13:21:31;37.67;;;27.20;;
10248;SDS011;5169;50.560;9.714;2023-04-15T13:24:01;30.13;;;24.50;;
10248;SDS011;5169;50.560;9.714;2023-04-15T13:26:27;35.90;;;26.50;;
10248;SDS011;5169;50.560;9.714;2023-04-15T13:28:53;27.70;;;23.70;;
10248;SDS011;5169;50.560;9.714;2023-04-15T13:31:21;25.73;;;22.80;;
10248;SDS011;5169;50.560;9.714;2023-04-15T13:33:47;30.53;;;24.40;;
10248;SDS011;5169;50.560;9.714;2023-04-15T13:36:12;27.37;;;23.73;;
10248;SDS011;5169;50.560;9.714;2023-04-15T13:38:38;23.93;;;21.43;;
10248;SDS011;5169;50.560;9.714;2023-04-15T13:41:06;35.10;;;26.47;;
10248;SDS011;5169;50.560;9.714;2023-04-15T13:43:31;27.30;;;22.87;;
10248;SDS011;5169;50.560;9.714;2023-04-15T13:45:58;31.37;;;24.70;;
10248;SDS011;5169;50.560;9.714;2023-04-15T13:48:23;29.27;;;24.07;;
10248;SDS011;5169;50.560;9.714;2023-04-15T13:50:49;31.20;;;25.33;;
10248;SDS011;5169;50.560;9.714;2023-04-15T13:53:15;35.83;;;26.63;;
10248;SDS011;5169;50.560;9.714;2023-04-15T13:55:40;31.00;;;24.73;;
10248;SDS011;5169;50.560;9.714;2023-04-15T13:58:07;25.93;;;22.47;;
10248;SDS011;5169;50.560;9.714;2023-04-15T14:00:37;31.43;;;24.93;;
10248;SDS011;5169;50.560;9.714;2023-04-15T14:03:05;29.67;;;24.20;;
10248;SDS011;5169;50.560;9.714;2023-04-15T14:05:31;34.07;;;25.60;;
10248;SDS011;5169;50.560;9.714;2023-04-15T14:07:58;31.57;;;24.30;;
10248;SDS011;5169;50.560;9.714;2023-04-15T14:10:26;34.27;;;25.37;;
10248;SDS011;5169;50.560;9.714;2023-04-15T14:12:53;27.63;;;22.90;;
10248;SDS011;5169;50.560;9.714;2023-04-15T14:15:21;39.67;;;27.67;;
10248;SDS011;5169;50.560;9.714;2023-04-15T14:17:47;34.27;;;25.33;;
10248;SDS011;5169;50.560;9.714;2023-04-15T14:20:15;40.47;;;27.83;;
10248;SDS011;5169;50.560;9.714;2023-04-15T14:22:40;37.50;;;26.27;;
10248;SDS011;5169;50.560;9.714;2023-04-15T14:25:06;37.80;;;26.63;;
10248;SDS011;5169;50.560;9.714;2023-04-15T14:27:32;39.70;;;26.67;;
10248;SDS011;5169;50.560;9.714;2023-04-15T14:29:58;28.13;;;22.90;;
10248;SDS011;5169;50.560;9.714;2023-04-15T14:32:25;25.67;;;22.90;;
10248;SDS011;5169;50.560;9.714;2023-04-15T14:34:51;33.37;;;25.60;;
10248;SDS011;5169;50.560;9.714;2023-04-15T14:37:16;33.07;;;26.00;;
10248;SDS011;5169;50.560;9.714;2023-04-15T14:39:42;29.33;;;24.30;;
10248;SDS011;5169;50.560;9.714;2023-04-15T14:42:10;24.77;;;22.17;;
10248;SDS011;5169;50.560;9.714;2023-04-15T14:44:35;26.27;;;23.40;;
10248;SDS011;5169;50.560;9.714;2023-04-15T14:47:01;28.10;;;23.33;;
10248;SDS011;5169;50.560;9.714;2023-04-15T14:49:26;31.20;;;25.47;;
10248;SDS011;5169;50.560;9.714;2023-04-15T14:51:52;35.93;;;27.13;;
10248;SDS011;5169;50.560;9.714;2023-04-15T14:54:18;39.13;;;28.17;;
10248;SDS011;5169;50.560;9.714;2023-04-15T14:56:43;41.50;;;28.70;;
10248;SDS011;5169;50.560;9.714;2023-04-15T14:59:09;36.33;;;27.40;;
10248;SDS011;5169;50.560;9.714;2023-04-15T15:01:34;33.93;;;26.43;;
10248;SDS011;5169;50.560;9.714;2023-04-15T15:04:02;41.00;;;28.27;;
10248;SDS011;5169;50.560;9.714;2023-04-15T15:06:31;34.37;;;26.23;;